Westgard — PDBQ — position and weather

sailwx.info

Track history (hours):
 
Tides and Currents Weather Stations Pressure Air Temp Water Temp Dewpoint Dewpoint Depression Visibility Wind Speed Wind Dir Waves Ship Positions

Westgard

Last reported at 2017-Jan-23 15:26 UTC. Time now 2017-Jan-23 17:02 UTC.
Position N 55°04' E 013°51'.

Length 89 m; draft 5.7 m.

Type: Ship. MMSI: 246457000.

Date/timePositionNaut miles runAvg speedWind from/ knotsBaromVisibWave heightAir tempDewpointWater temp
2017-Jan-23 15:26N 55°04' E 013°51'1010.9
2017-Jan-23 14:33N 55°07' E 014°06'1110.8
2017-Jan-23 13:31N 55°16' E 014°20'1111.0
2017-Jan-23 12:33N 55°23' E 014°33'1110.6
2017-Jan-23 11:33N 55°30' E 014°48'1110.9
2017-Jan-23 10:32N 55°35' E 015°05'25610.2
2017-Jan-22 09:20N 59°08' E 019°29'810.5
2017-Jan-22 08:33N 59°15' E 019°37'36 9.0
2017-Jan-22 04:33N 59°51' E 019°32'1111.1
2017-Jan-22 03:33N 59°59' E 019°18'  
2017-Jan-16 19:33N 60°02' E 019°23'1210.4
2017-Jan-16 18:26N 59°53' E 019°37'288 9.2
2017-Jan-15 11:11N 55°38' E 015°26'710.0
2017-Jan-15 10:29N 55°34' E 015°15'1010.1
2017-Jan-15 09:32N 55°30' E 015°01'1010.1
2017-Jan-15 08:33N 55°25' E 014°45'10 9.8
2017-Jan-15 07:33N 55°19' E 014°32'10 9.6
2017-Jan-15 06:31N 55°12' E 014°20'10 9.8
2017-Jan-15 05:33N 55°11' E 014°03'3210.2
2017-Jan-15 02:25N 55°14' E 013°07'910.3
2017-Jan-15 01:33N 55°15' E 012°52'9 9.0
2017-Jan-15 00:33N 55°20' E 012°39'1110.6
2017-Jan-14 23:33N 55°31' E 012°41'1111.2
2017-Jan-14 22:33N 55°42' E 012°41'1010.5
2017-Jan-14 21:33N 55°52' E 012°40'1010.4
2017-Jan-14 20:34N 56°03' E 012°38'1111.0
2017-Jan-14 19:33N 56°10' E 012°23'7110.1
2017-Jan-14 12:33N 57°14' E 011°29'1110.6
2017-Jan-14 11:33N 57°23' E 011°19'1010.5
2017-Jan-14 10:33N 57°31' E 011°06'1110.5
2017-Jan-14 09:33N 57°37' E 010°51'10 3.2
2017-Jan-14 06:25N 57°43' E 010°36'4 4.1
2017-Jan-14 05:33N 57°43' E 010°42'109 9.1
2017-Jan-13 17:33N 57°56' E 007°19'10 9.7
2017-Jan-13 16:33N 57°58' E 007°01'1010.3
2017-Jan-13 15:33N 58°02' E 006°43'  
Track history (hours):
 
Tides and Currents Weather Stations Pressure Air Temp Water Temp Dewpoint Dewpoint Depression Visibility Wind Speed Wind Dir Waves Ship Positions

Westgard

Last reported at 2017-Jan-23 15:26 UTC. Time now 2017-Jan-23 17:02 UTC.
Position N 55°04' E 013°51'.

Length 89 m; draft 5.7 m.

Type: Ship. MMSI: 246457000.

Date/timePositionNaut miles runAvg speedWind from/ knotsBaromVisibWave heightAir tempDewpointWater temp
2017-Jan-23 15:26N 55°04' E 013°51'1010.9
2017-Jan-23 14:33N 55°07' E 014°06'1110.8
2017-Jan-23 13:31N 55°16' E 014°20'1111.0
2017-Jan-23 12:33N 55°23' E 014°33'1110.6
2017-Jan-23 11:33N 55°30' E 014°48'1110.9
2017-Jan-23 10:32N 55°35' E 015°05'25610.2
2017-Jan-22 09:20N 59°08' E 019°29'810.5
2017-Jan-22 08:33N 59°15' E 019°37'36 9.0
2017-Jan-22 04:33N 59°51' E 019°32'1111.1
2017-Jan-22 03:33N 59°59' E 019°18'  
2017-Jan-16 19:33N 60°02' E 019°23'1210.4
2017-Jan-16 18:26N 59°53' E 019°37'288 9.2
2017-Jan-15 11:11N 55°38' E 015°26'710.0
2017-Jan-15 10:29N 55°34' E 015°15'1010.1
2017-Jan-15 09:32N 55°30' E 015°01'1010.1
2017-Jan-15 08:33N 55°25' E 014°45'10 9.8
2017-Jan-15 07:33N 55°19' E 014°32'10 9.6
2017-Jan-15 06:31N 55°12' E 014°20'10 9.8
2017-Jan-15 05:33N 55°11' E 014°03'3210.2
2017-Jan-15 02:25N 55°14' E 013°07'910.3
2017-Jan-15 01:33N 55°15' E 012°52'9 9.0
2017-Jan-15 00:33N 55°20' E 012°39'1110.6
2017-Jan-14 23:33N 55°31' E 012°41'1111.2
2017-Jan-14 22:33N 55°42' E 012°41'1010.5
2017-Jan-14 21:33N 55°52' E 012°40'1010.4
2017-Jan-14 20:34N 56°03' E 012°38'1111.0
2017-Jan-14 19:33N 56°10' E 012°23'7110.1
2017-Jan-14 12:33N 57°14' E 011°29'1110.6
2017-Jan-14 11:33N 57°23' E 011°19'1010.5
2017-Jan-14 10:33N 57°31' E 011°06'1110.5
2017-Jan-14 09:33N 57°37' E 010°51'10 3.2
2017-Jan-14 06:25N 57°43' E 010°36'4 4.1
2017-Jan-14 05:33N 57°43' E 010°42'109 9.1
2017-Jan-13 17:33N 57°56' E 007°19'10 9.7
2017-Jan-13 16:33N 57°58' E 007°01'1010.3
2017-Jan-13 15:33N 58°02' E 006°43'  

Dump ship's entire track history